Montezuma, NM (87731)

12:44 AM MST on February 11, 2016 (GMT -0700)
Las Vegas Municipal | | Change Station
CLOSE
Current Station
Airport
Location: Las Vegas,
Elevation: 6877 ft
Nearby Weather Stations

Elev 6877 ft 35.65 °N, 105.14 °W | Updated 51 minutes ago

Clear
Clear
40 °F
Feels Like 35 °F
N
7
Wind Variable Wind from North

Today
High -- | Low -- °F
--% Chance of Precip.
Yesterday
High -- | Low -- °F
Precip. -- in
Pressure 30.06 in
Visibility 10.0 miles
Clouds Clear
Windchill 35 °F
Dew Point 9 °F
Humidity 28%
Rainfall 0.00 in
Snow Depth Not available.
6:52 AM 5:38 PM
Waxing Crescent, 10% visible
METAR KLVS 110653Z AUTO 36006KT 10SM CLR 04/M13 A3026 RMK AO2 SLP178 T00441128 401941044
Pressure 30.06 in
Visibility 10.0 miles
Clouds Clear
Windchill 35 °F
Dew Point 9 °F
Humidity 28%
Rainfall 0.00 in
Snow Depth Not available.
6:52 AM 5:38 PM
Waxing Crescent, 10% visible
METAR KLVS 110653Z AUTO 36006KT 10SM CLR 04/M13 A3026 RMK AO2 SLP178 T00441128 401941044

10-Day Weather Forecast

Almanac

Astronomy

Feb. 11, 2016 Rise Set
Actual Time
Civil Twilight
Nautical Twilight
Astronomical Twilight
Moon
Length of Visible Light
Length of Day
Tomorrow will be .
, % of the Moon is Illuminated

Today's Extremes

State Highs State Lows

Community

WunderPhotos

Upload Photos

1,892,030 photos uploaded!

WunderBlog® & News

Nearby

Air Quality

  Air Quality AQ Index Pollutant
Not available.

Snow Depth

Station Depth Elevation

Earthquake Activity

City Distance Mag. Time & Date
Minimum magnitude displayed is 2.5.

Coastal Water Temperatures

Place Temperature

Stations

Nearby Weather Stations

Station Location Temp. Windchill Dew Point Humidity Wind Precip. Elev Updated Type
                   

Watches & Warnings

There are currently no watches in effect.